Time,TemperatureF,DewpointF,PressureIn,WindDirection,WindDirectionDegrees,WindSpeedMPH,WindSpeedGustMPH,Humidity,HourlyPrecipIn,Conditions,Clouds,dailyrainin,SoftwareType,DateUTC
2013-04-28 00:01:00,47.8,47.7,29.75,NW,315,4.0,8.0,99,0.01,,,0.66,meteohub,2013-04-28 04:01:00,
2013-04-28 00:02:00,47.8,47.7,29.76,North,0,4.0,8.0,99,0.01,,,0.66,meteohub,2013-04-28 04:02:00,
2013-04-28 00:09:00,48.0,47.8,29.77,NE,45,3.0,8.0,99,0.01,,,0.00,meteohub,2013-04-28 04:09:00,
2013-04-28 00:15:00,48.0,47.8,29.77,NE,45,2.0,8.0,99,0.00,,,0.00,meteohub,2013-04-28 04:15:00,
2013-04-28 00:21:00,48.0,47.8,29.77,NW,315,6.0,6.0,99,0.00,,,0.00,meteohub,2013-04-28 04:21:00,
2013-04-28 00:27:00,48.2,48.0,29.76,NE,45,3.0,6.0,99,0.00,,,0.00,meteohub,2013-04-28 04:27:00,
2013-04-28 00:33:00,48.0,47.8,29.76,North,0,3.0,6.0,99,0.00,,,0.00,meteohub,2013-04-28 04:33:00,
2013-04-28 00:40:00,48.2,48.0,29.76,NNE,23,5.0,7.0,99,0.00,,,0.00,meteohub,2013-04-28 04:40:00,
2013-04-28 00:46:00,48.2,48.0,29.76,North,0,5.0,8.0,99,0.00,,,0.00,meteohub,2013-04-28 04:46:00,
2013-04-28 00:51:00,48.4,48.2,29.76,NE,45,2.0,8.0,99,0.00,,,0.00,meteohub,2013-04-28 04:51:00,
2013-04-28 00:57:00,48.4,48.2,29.75,SW,225,9.0,9.0,99,0.00,,,0.00,meteohub,2013-04-28 04:57:00,
2013-04-28 01:03:00,48.4,48.2,29.75,North,0,6.0,9.0,99,0.00,,,0.00,meteohub,2013-04-28 05:03:00,
2013-04-28 01:09:00,48.4,48.2,29.75,NW,315,8.0,9.0,99,0.00,,,0.00,meteohub,2013-04-28 05:09:00,
2013-04-28 01:15:00,48.4,48.2,29.75,SE,135,2.0,9.0,99,0.00,,,0.00,meteohub,2013-04-28 05:15:00,
2013-04-28 01:21:00,48.6,48.4,29.75,West,270,5.0,8.0,99,0.00,,,0.00,meteohub,2013-04-28 05:21:00,
2013-04-28 01:27:00,48.6,48.4,29.75,East,90,2.0,7.0,99,0.00,,,0.00,meteohub,2013-04-28 05:27:00,
2013-04-28 01:34:00,48.7,48.6,29.75,East,90,5.0,5.0,99,0.00,,,0.00,meteohub,2013-04-28 05:34:00,
2013-04-28 01:40:00,49.3,49.1,29.74,SW,225,6.0,7.0,99,0.00,,,0.00,meteohub,2013-04-28 05:40:00,
2013-04-28 01:45:00,49.3,49.1,29.75,NW,315,8.0,8.0,99,0.00,,,0.00,meteohub,2013-04-28 05:45:00,
2013-04-28 01:51:00,49.3,49.1,29.74,NNW,338,5.0,11.0,99,0.00,,,0.00,meteohub,2013-04-28 05:51:00,
2013-04-28 01:57:00,49.1,48.9,29.73,NW,315,3.0,11.0,99,0.00,,,0.00,meteohub,2013-04-28 05:57:00,
2013-04-28 02:03:00,48.9,48.7,29.73,SE,135,4.0,8.0,99,0.00,,,0.00,meteohub,2013-04-28 06:03:00,
2013-04-28 02:09:00,48.6,48.4,29.73,NE,45,6.0,8.0,99,0.00,,,0.00,meteohub,2013-04-28 06:09:00,
2013-04-28 02:16:00,48.4,48.2,29.72,NE,45,4.0,8.0,99,0.00,,,0.00,meteohub,2013-04-28 06:16:00,
2013-04-28 02:22:00,48.4,48.2,29.72,SE,135,2.0,8.0,99,0.01,,,0.01,meteohub,2013-04-28 06:22:00,
2013-04-28 02:28:00,48.0,47.8,29.72,NE,45,2.0,8.0,99,0.01,,,0.01,meteohub,2013-04-28 06:28:00,
2013-04-28 02:34:00,48.0,47.8,29.73,SE,135,2.0,8.0,99,0.01,,,0.01,meteohub,2013-04-28 06:34:00,
2013-04-28 02:40:00,48.0,47.8,29.72,NNE,23,4.0,7.0,99,0.01,,,0.01,meteohub,2013-04-28 06:40:00,
2013-04-28 02:47:00,48.0,47.8,29.71,NW,315,6.0,6.0,99,0.01,,,0.01,meteohub,2013-04-28 06:47:00,
2013-04-28 02:53:00,47.8,47.7,29.72,NE,45,2.0,6.0,99,0.02,,,0.02,meteohub,2013-04-28 06:53:00,
2013-04-28 02:59:00,47.8,47.7,29.72,NW,315,2.0,6.0,99,0.02,,,0.02,meteohub,2013-04-28 06:59:00,
2013-04-28 03:05:00,47.7,47.5,29.72,West,270,1.0,6.0,99,0.02,,,0.04,meteohub,2013-04-28 07:05:00,
2013-04-28 03:11:00,47.7,47.5,29.72,North,0,2.0,4.0,99,0.04,,,0.04,meteohub,2013-04-28 07:11:00,
2013-04-28 03:17:00,47.7,47.5,29.72,NE,45,4.0,4.0,99,0.04,,,0.04,meteohub,2013-04-28 07:17:00,
2013-04-28 03:22:00,47.7,47.5,29.72,NE,45,2.0,4.0,99,0.02,,,0.04,meteohub,2013-04-28 07:22:00,
2013-04-28 03:28:00,47.7,47.5,29.72,North,0,1.0,6.0,99,0.02,,,0.04,meteohub,2013-04-28 07:28:00,
2013-04-28 03:34:00,47.7,47.5,29.71,NW,315,2.0,7.0,99,0.02,,,0.04,meteohub,2013-04-28 07:34:00,
2013-04-28 03:40:00,47.7,47.5,29.70,NE,45,2.0,5.0,99,0.02,,,0.04,meteohub,2013-04-28 07:40:00,
2013-04-28 03:47:00,47.5,47.3,29.71,SE,135,2.0,5.0,99,0.04,,,0.05,meteohub,2013-04-28 07:47:00,
2013-04-28 03:53:00,47.5,47.3,29.71,East,90,3.0,8.0,99,0.02,,,0.05,meteohub,2013-04-28 07:53:00,
2013-04-28 03:59:00,47.5,47.3,29.70,North,0,6.0,8.0,99,0.04,,,0.06,meteohub,2013-04-28 07:59:00,
2013-04-28 04:04:00,47.5,47.3,29.70,SE,135,6.0,8.0,99,0.04,,,0.07,meteohub,2013-04-28 08:04:00,
2013-04-28 04:11:00,47.7,47.5,29.70,SE,135,2.0,6.0,99,0.04,,,0.07,meteohub,2013-04-28 08:11:00,
2013-04-28 04:17:00,47.8,47.7,29.70,NE,45,4.0,6.0,99,0.04,,,0.09,meteohub,2013-04-28 08:17:00,
2013-04-28 04:23:00,47.8,47.7,29.70,NE,45,4.0,6.0,99,0.06,,,0.09,meteohub,2013-04-28 08:23:00,
2013-04-28 04:29:00,47.8,47.7,29.70,NE,45,4.0,6.0,99,0.08,,,0.12,meteohub,2013-04-28 08:29:00,
2013-04-28 04:35:00,47.7,47.5,29.69,NE,45,2.0,6.0,99,0.08,,,0.12,meteohub,2013-04-28 08:35:00,
2013-04-28 04:41:00,47.7,47.5,29.69,NE,45,2.0,5.0,99,0.08,,,0.12,meteohub,2013-04-28 08:41:00,
2013-04-28 04:47:00,47.7,47.5,29.70,East,90,2.0,5.0,99,0.08,,,0.12,meteohub,2013-04-28 08:47:00,
2013-04-28 04:52:00,47.7,47.5,29.69,NW,315,4.0,5.0,99,0.07,,,0.12,meteohub,2013-04-28 08:52:00,
2013-04-28 04:58:00,47.7,47.5,29.69,NW,315,3.0,5.0,99,0.07,,,0.12,meteohub,2013-04-28 08:58:00,
2013-04-28 05:04:00,48.0,47.8,29.69,NE,45,3.0,4.0,99,0.05,,,0.12,meteohub,2013-04-28 09:04:00,
2013-04-28 05:10:00,47.8,47.7,29.69,NW,315,4.0,10.0,99,0.02,,,0.12,meteohub,2013-04-28 09:10:00,
2013-04-28 05:17:00,47.8,47.7,29.68,NE,45,3.0,10.0,99,0.02,,,0.12,meteohub,2013-04-28 09:17:00,
2013-04-28 05:22:00,47.7,47.5,29.68,North,0,6.0,7.0,99,0.02,,,0.12,meteohub,2013-04-28 09:22:00,
2013-04-28 05:28:00,47.7,47.5,29.68,West,270,8.0,8.0,99,0.02,,,0.12,meteohub,2013-04-28 09:28:00,
2013-04-28 05:34:00,47.8,47.7,29.68,NNW,338,5.0,7.0,99,0.00,,,0.12,meteohub,2013-04-28 09:34:00,
2013-04-28 05:40:00,47.8,47.7,29.68,SE,135,3.0,8.0,99,0.01,,,0.13,meteohub,2013-04-28 09:40:00,
2013-04-28 05:46:00,48.0,47.8,29.67,NNW,338,7.0,8.0,99,0.01,,,0.13,meteohub,2013-04-28 09:46:00,
2013-04-28 05:52:00,48.0,47.8,29.67,North,0,4.0,11.0,99,0.01,,,0.13,meteohub,2013-04-28 09:52:00,
2013-04-28 05:58:00,48.0,47.8,29.67,North,0,5.0,11.0,99,0.02,,,0.13,meteohub,2013-04-28 09:58:00,
2013-04-28 06:05:00,48.0,47.8,29.67,North,0,8.0,10.0,99,0.02,,,0.13,meteohub,2013-04-28 10:05:00,
2013-04-28 06:11:00,48.0,47.8,29.67,NNE,23,5.0,8.0,99,0.02,,,0.14,meteohub,2013-04-28 10:11:00,
2013-04-28 06:17:00,48.0,47.8,29.67,NE,45,2.0,8.0,99,0.02,,,0.14,meteohub,2013-04-28 10:17:00,
2013-04-28 06:22:00,48.0,47.8,29.67,NE,45,4.0,9.0,99,0.04,,,0.14,meteohub,2013-04-28 10:22:00,
2013-04-28 06:28:00,48.0,47.8,29.67,NE,45,1.0,9.0,99,0.04,,,0.15,meteohub,2013-04-28 10:28:00,
2013-04-28 06:34:00,48.0,47.8,29.67,North,0,2.0,5.0,99,0.05,,,0.15,meteohub,2013-04-28 10:34:00,
2013-04-28 06:41:00,48.0,47.8,29.67,NE,45,2.0,3.0,99,0.04,,,0.17,meteohub,2013-04-28 10:41:00,
2013-04-28 06:47:00,48.0,47.8,29.68,North,0,2.0,3.0,99,0.04,,,0.17,meteohub,2013-04-28 10:47:00,
2013-04-28 06:53:00,48.0,47.8,29.68,NE,45,2.0,4.0,99,0.04,,,0.17,meteohub,2013-04-28 10:53:00,
2013-04-28 06:59:00,48.0,47.8,29.68,East,90,2.0,4.0,99,0.02,,,0.17,meteohub,2013-04-28 10:59:00,
2013-04-28 07:05:00,48.0,47.8,29.68,NE,45,2.0,3.0,99,0.02,,,0.17,meteohub,2013-04-28 11:05:00,
2013-04-28 07:11:00,48.0,47.8,29.68,NE,45,4.0,4.0,99,0.02,,,0.17,meteohub,2013-04-28 11:11:00,
2013-04-28 07:17:00,48.0,47.8,29.68,North,0,2.0,3.0,99,0.02,,,0.17,meteohub,2013-04-28 11:17:00,
2013-04-28 07:22:00,48.2,48.0,29.68,NE,45,2.0,5.0,99,0.01,,,0.17,meteohub,2013-04-28 11:22:00,
2013-04-28 07:28:00,48.0,47.8,29.68,East,90,4.0,5.0,99,0.01,,,0.17,meteohub,2013-04-28 11:28:00,
2013-04-28 07:34:00,48.0,47.8,29.69,North,0,1.0,6.0,99,0.00,,,0.17,meteohub,2013-04-28 11:34:00,
2013-04-28 07:41:00,48.0,47.8,29.70,SE,135,2.0,6.0,99,0.00,,,0.17,meteohub,2013-04-28 11:41:00,
2013-04-28 07:47:00,48.0,47.8,29.69,SSW,203,6.0,6.0,99,0.00,,,0.17,meteohub,2013-04-28 11:47:00,
2013-04-28 07:53:00,48.0,47.8,29.70,NW,315,2.0,6.0,99,0.00,,,0.17,meteohub,2013-04-28 11:53:00,
2013-04-28 07:59:00,47.8,47.7,29.72,SW,225,3.0,6.0,99,0.00,,,0.17,meteohub,2013-04-28 11:59:00,
2013-04-28 08:05:00,48.0,47.8,29.73,North,0,6.0,6.0,99,0.00,,,0.17,meteohub,2013-04-28 12:05:00,
2013-04-28 08:12:00,48.0,47.8,29.75,South,180,2.0,8.0,99,0.05,,,0.20,meteohub,2013-04-28 12:12:00,
2013-04-28 08:17:00,48.0,47.8,29.75,South,180,3.0,8.0,99,0.05,,,0.33,meteohub,2013-04-28 12:17:00,
2013-04-28 08:22:00,48.0,47.8,29.74,NE,45,2.0,8.0,99,0.17,,,0.33,meteohub,2013-04-28 12:22:00,
2013-04-28 08:29:00,48.0,47.8,29.73,NE,45,2.0,4.0,99,0.20,,,0.37,meteohub,2013-04-28 12:29:00,
2013-04-28 08:35:00,48.0,47.8,29.73,East,90,2.0,4.0,99,0.21,,,0.39,meteohub,2013-04-28 12:35:00,
2013-04-28 08:41:00,48.0,47.8,29.72,NE,45,0.0,3.0,99,0.24,,,0.40,meteohub,2013-04-28 12:41:00,
2013-04-28 08:47:00,48.0,47.8,29.72,NE,45,2.0,2.0,99,0.24,,,0.40,meteohub,2013-04-28 12:47:00,
2013-04-28 08:52:00,48.0,47.8,29.72,North,0,2.0,2.0,99,0.24,,,0.40,meteohub,2013-04-28 12:52:00,
2013-04-28 08:58:00,48.0,47.8,29.71,NE,45,2.0,3.0,99,0.24,,,0.40,meteohub,2013-04-28 12:58:00,
2013-04-28 09:04:00,48.0,47.8,29.71,NE,45,0.0,3.0,99,0.24,,,0.40,meteohub,2013-04-28 13:04:00,
2013-04-28 09:11:00,47.8,47.7,29.70,NE,45,1.0,2.0,99,0.14,,,0.44,meteohub,2013-04-28 13:11:00,
2013-04-28 09:17:00,47.8,47.7,29.71,NE,45,1.0,1.0,99,0.11,,,0.44,meteohub,2013-04-28 13:17:00,
2013-04-28 09:23:00,47.5,47.3,29.73,SE,135,0.0,1.0,99,0.09,,,0.44,meteohub,2013-04-28 13:23:00,
2013-04-28 09:29:00,47.5,47.3,29.73,North,0,1.0,1.0,99,0.07,,,0.45,meteohub,2013-04-28 13:29:00,
2013-04-28 09:35:00,47.5,47.3,29.72,North,0,2.0,2.0,99,0.07,,,0.47,meteohub,2013-04-28 13:35:00,
2013-04-28 09:41:00,47.5,47.3,29.71,NE,45,0.0,2.0,99,0.07,,,0.47,meteohub,2013-04-28 13:41:00,
2013-04-28 09:47:00,47.5,47.3,29.72,SE,135,1.0,2.0,99,0.09,,,0.50,meteohub,2013-04-28 13:47:00,
2013-04-28 09:52:00,47.5,47.3,29.71,North,0,1.0,2.0,99,0.11,,,0.51,meteohub,2013-04-28 13:52:00,
2013-04-28 09:58:00,47.5,47.3,29.72,SE,135,1.0,2.0,99,0.11,,,0.51,meteohub,2013-04-28 13:58:00,
2013-04-28 10:04:00,47.3,47.1,29.72,NW,315,2.0,2.0,99,0.12,,,0.53,meteohub,2013-04-28 14:04:00,
2013-04-28 10:10:00,47.3,47.1,29.71,NE,45,2.0,2.0,99,0.12,,,0.56,meteohub,2013-04-28 14:10:00,
2013-04-28 10:16:00,47.1,46.9,29.70,East,90,0.0,2.0,99,0.14,,,0.58,meteohub,2013-04-28 14:16:00,
2013-04-28 10:22:00,47.1,46.9,29.69,North,0,2.0,2.0,99,0.14,,,0.59,meteohub,2013-04-28 14:22:00,
2013-04-28 10:29:00,47.3,47.1,29.70,South,180,1.0,2.0,99,0.17,,,0.61,meteohub,2013-04-28 14:29:00,
2013-04-28 10:35:00,47.3,47.1,29.70,NE,45,1.0,2.0,99,0.17,,,0.64,meteohub,2013-04-28 14:35:00,
2013-04-28 10:41:00,47.5,47.3,29.70,East,90,2.0,2.0,99,0.18,,,0.67,meteohub,2013-04-28 14:41:00,
2013-04-28 10:47:00,47.7,47.5,29.70,West,270,2.0,2.0,99,0.19,,,0.69,meteohub,2013-04-28 14:47:00,
2013-04-28 10:53:00,47.7,47.5,29.72,SE,135,1.0,2.0,99,0.19,,,0.70,meteohub,2013-04-28 14:53:00,
2013-04-28 10:59:00,47.7,47.5,29.70,SE,135,2.0,2.0,99,0.19,,,0.71,meteohub,2013-04-28 14:59:00,
2013-04-28 11:05:00,47.8,47.7,29.71,South,180,1.0,3.0,99,0.21,,,0.76,meteohub,2013-04-28 15:05:00,
2013-04-28 11:12:00,48.0,47.8,29.71,NE,45,0.0,3.0,99,0.20,,,0.77,meteohub,2013-04-28 15:12:00,
2013-04-28 11:17:00,48.2,48.0,29.71,North,0,1.0,3.0,99,0.19,,,0.78,meteohub,2013-04-28 15:17:00,
2013-04-28 11:22:00,48.2,48.0,29.71,SE,135,0.0,2.0,99,0.18,,,0.79,meteohub,2013-04-28 15:22:00,
2013-04-28 11:28:00,48.4,48.2,29.71,South,180,2.0,2.0,99,0.19,,,0.80,meteohub,2013-04-28 15:28:00,
2013-04-28 11:35:00,48.6,48.4,29.71,South,180,1.0,2.0,99,0.17,,,0.80,meteohub,2013-04-28 15:35:00,
2013-04-28 11:41:00,48.9,48.7,29.70,North,0,0.0,2.0,99,0.15,,,0.84,meteohub,2013-04-28 15:41:00,
2013-04-28 11:47:00,49.1,48.9,29.70,SW,225,1.0,2.0,99,0.17,,,0.85,meteohub,2013-04-28 15:47:00,
2013-04-28 11:52:00,49.3,49.1,29.70,SW,225,0.0,2.0,99,0.14,,,0.85,meteohub,2013-04-28 15:52:00,
2013-04-28 11:58:00,49.5,49.3,29.70,SE,135,1.0,2.0,99,0.12,,,0.85,meteohub,2013-04-28 15:58:00,
2013-04-28 12:04:00,49.6,49.5,29.69,West,270,0.0,2.0,99,0.12,,,0.86,meteohub,2013-04-28 16:04:00,
2013-04-28 12:10:00,50.0,49.6,29.69,South,180,2.0,2.0,99,0.11,,,0.87,meteohub,2013-04-28 16:10:00,
2013-04-28 12:17:00,49.6,49.5,29.69,West,270,0.0,2.0,99,0.09,,,0.87,meteohub,2013-04-28 16:17:00,
2013-04-28 12:23:00,50.0,49.6,29.69,West,270,0.0,2.0,99,0.08,,,0.87,meteohub,2013-04-28 16:23:00,
2013-04-28 12:29:00,50.5,50.2,29.68,West,270,0.0,2.0,99,0.07,,,0.87,meteohub,2013-04-28 16:29:00,
2013-04-28 12:35:00,50.9,50.5,29.68,SSW,203,2.0,2.0,99,0.05,,,0.87,meteohub,2013-04-28 16:35:00,
2013-04-28 13:02:00,50.9,50.5,29.68,SW,225,2.0,2.0,99,0.04,,,0.90,meteohub,2013-04-28 17:02:00,
2013-04-28 13:08:00,50.9,50.5,29.67,SE,135,2.0,3.0,99,0.02,,,0.90,meteohub,2013-04-28 17:08:00,
2013-04-28 13:14:00,51.1,50.7,29.67,South,180,1.0,3.0,99,0.02,,,0.90,meteohub,2013-04-28 17:14:00,
2013-04-28 13:20:00,51.1,50.7,29.66,South,180,2.0,3.0,99,0.02,,,0.90,meteohub,2013-04-28 17:20:00,
2013-04-28 13:28:00,51.1,50.7,29.66,SW,225,1.0,3.0,99,0.04,,,0.91,meteohub,2013-04-28 17:28:00,
2013-04-28 13:34:00,50.9,50.5,29.66,SE,135,0.0,3.0,99,0.04,,,0.91,meteohub,2013-04-28 17:34:00,
2013-04-28 13:40:00,51.3,50.9,29.65,South,180,0.0,2.0,99,0.05,,,0.93,meteohub,2013-04-28 17:40:00,
2013-04-28 13:46:00,51.1,50.7,29.65,South,180,0.0,2.0,99,0.06,,,0.94,meteohub,2013-04-28 17:46:00,
2013-04-28 13:53:00,51.1,50.7,29.65,SE,135,0.0,1.0,99,0.06,,,0.94,meteohub,2013-04-28 17:53:00,
2013-04-28 13:59:00,50.9,50.5,29.65,NW,315,1.0,1.0,99,0.06,,,0.96,meteohub,2013-04-28 17:59:00,
2013-04-28 14:05:00,50.9,50.5,29.65,SW,225,2.0,2.0,99,0.07,,,0.97,meteohub,2013-04-28 18:05:00,
2013-04-28 14:11:00,50.7,50.4,29.65,East,90,2.0,3.0,99,0.08,,,0.98,meteohub,2013-04-28 18:11:00,
2013-04-28 14:17:00,50.7,50.4,29.65,East,90,0.0,4.0,99,0.09,,,0.98,meteohub,2013-04-28 18:17:00,
2013-04-28 14:22:00,50.9,50.5,29.65,NE,45,3.0,4.0,99,0.09,,,0.99,meteohub,2013-04-28 18:22:00,
2013-04-28 14:28:00,51.3,50.9,29.65,North,0,4.0,4.0,99,0.11,,,1.02,meteohub,2013-04-28 18:28:00,
2013-04-28 14:34:00,51.4,51.1,29.65,NE,45,4.0,4.0,99,0.12,,,1.03,meteohub,2013-04-28 18:34:00,
2013-04-28 14:41:00,51.6,51.3,29.65,East,90,2.0,4.0,99,0.09,,,1.04,meteohub,2013-04-28 18:41:00,
2013-04-28 14:47:00,51.8,51.3,29.65,NE,45,2.0,4.0,98,0.11,,,1.05,meteohub,2013-04-28 18:47:00,
2013-04-28 14:52:00,52.0,51.4,29.64,East,90,2.0,3.0,98,0.12,,,1.07,meteohub,2013-04-28 18:52:00,
2013-04-28 14:58:00,52.0,51.4,29.64,NE,45,2.0,3.0,98,0.13,,,1.09,meteohub,2013-04-28 18:58:00,
2013-04-28 15:04:00,52.0,51.4,29.65,SE,135,1.0,3.0,98,0.12,,,1.09,meteohub,2013-04-28 19:04:00,
2013-04-28 15:11:00,52.0,51.4,29.64,NW,315,2.0,2.0,98,0.14,,,1.11,meteohub,2013-04-28 19:11:00,
2013-04-28 15:17:00,52.0,51.4,29.64,South,180,2.0,2.0,98,0.13,,,1.12,meteohub,2013-04-28 19:17:00,
2013-04-28 15:22:00,52.0,51.4,29.63,SE,135,2.0,3.0,98,0.12,,,1.12,meteohub,2013-04-28 19:22:00,
2013-04-28 15:28:00,52.0,51.4,29.63,East,90,1.0,3.0,98,0.11,,,1.12,meteohub,2013-04-28 19:28:00,
2013-04-28 15:34:00,52.0,51.4,29.63,North,0,2.0,6.0,98,0.09,,,1.13,meteohub,2013-04-28 19:34:00,
2013-04-28 15:40:00,51.8,51.3,29.63,East,90,1.0,6.0,98,0.12,,,1.16,meteohub,2013-04-28 19:40:00,
2013-04-28 15:47:00,52.0,51.4,29.63,East,90,3.0,5.0,98,0.11,,,1.17,meteohub,2013-04-28 19:47:00,
2013-04-28 15:53:00,52.2,51.6,29.62,ESE,113,2.0,5.0,98,0.09,,,1.17,meteohub,2013-04-28 19:53:00,
2013-04-28 15:59:00,52.5,52.0,29.62,South,180,4.0,4.0,98,0.12,,,1.20,meteohub,2013-04-28 19:59:00,
2013-04-28 16:05:00,52.5,52.0,29.63,South,180,4.0,4.0,98,0.09,,,1.20,meteohub,2013-04-28 20:05:00,
2013-04-28 16:11:00,52.3,51.8,29.62,NE,45,0.0,4.0,98,0.09,,,1.22,meteohub,2013-04-28 20:11:00,
2013-04-28 16:17:00,52.3,51.8,29.63,NW,315,0.0,4.0,98,0.12,,,1.24,meteohub,2013-04-28 20:17:00,
2013-04-28 16:22:00,52.3,51.8,29.63,NW,315,0.0,4.0,98,0.15,,,1.25,meteohub,2013-04-28 20:22:00,
2013-04-28 16:29:00,52.2,51.6,29.63,South,180,0.0,0.0,98,0.15,,,1.29,meteohub,2013-04-28 20:29:00,
2013-04-28 16:35:00,52.2,51.6,29.63,South,180,1.0,2.0,98,0.19,,,1.32,meteohub,2013-04-28 20:35:00,
2013-04-28 16:41:00,52.0,51.4,29.63,SE,135,0.0,2.0,98,0.22,,,1.38,meteohub,2013-04-28 20:41:00,
2013-04-28 16:47:00,52.0,51.4,29.63,SE,135,2.0,2.0,98,0.22,,,1.39,meteohub,2013-04-28 20:47:00,
2013-04-28 16:52:00,52.0,51.4,29.63,SE,135,0.0,2.0,98,0.24,,,1.41,meteohub,2013-04-28 20:52:00,
2013-04-28 16:58:00,52.2,51.6,29.63,SE,135,0.0,2.0,98,0.21,,,1.42,meteohub,2013-04-28 20:58:00,
2013-04-28 17:04:00,52.2,51.6,29.64,SE,135,0.0,2.0,98,0.24,,,1.43,meteohub,2013-04-28 21:04:00,
2013-04-28 17:10:00,52.3,51.8,29.64,SE,135,0.0,0.0,98,0.22,,,1.45,meteohub,2013-04-28 21:10:00,
2013-04-28 17:17:00,52.2,51.6,29.64,North,0,1.0,0.0,98,0.22,,,1.46,meteohub,2013-04-28 21:17:00,
2013-04-28 17:23:00,52.3,51.8,29.65,North,0,0.0,1.0,98,0.20,,,1.48,meteohub,2013-04-28 21:23:00,
2013-04-28 17:29:00,52.3,51.8,29.64,North,0,0.0,1.0,98,0.19,,,1.49,meteohub,2013-04-28 21:29:00,
2013-04-28 17:35:00,52.2,51.6,29.63,NE,45,1.0,1.0,98,0.15,,,1.50,meteohub,2013-04-28 21:35:00,
2013-04-28 17:41:00,52.2,51.6,29.64,SE,135,2.0,2.0,98,0.13,,,1.51,meteohub,2013-04-28 21:41:00,
2013-04-28 17:47:00,52.2,51.6,29.64,SE,135,1.0,2.0,98,0.13,,,1.52,meteohub,2013-04-28 21:47:00,
2013-04-28 17:52:00,52.0,51.4,29.64,SE,135,0.0,2.0,98,0.11,,,1.52,meteohub,2013-04-28 21:52:00,
2013-04-28 17:58:00,52.2,51.6,29.65,SE,135,0.0,2.0,98,0.11,,,1.54,meteohub,2013-04-28 21:58:00,
2013-04-28 18:04:00,52.2,51.6,29.65,NW,315,0.0,2.0,98,0.09,,,1.54,meteohub,2013-04-28 22:04:00,
2013-04-28 18:10:00,52.0,51.4,29.65,NW,315,0.0,0.0,98,0.08,,,1.55,meteohub,2013-04-28 22:10:00,
2013-04-28 18:17:00,52.2,51.6,29.65,NW,315,0.0,0.0,98,0.09,,,1.56,meteohub,2013-04-28 22:17:00,
2013-04-28 18:23:00,52.2,51.6,29.65,SW,225,2.0,0.0,98,0.09,,,1.57,meteohub,2013-04-28 22:23:00,
2013-04-28 18:29:00,52.2,51.6,29.65,SW,225,0.0,2.0,98,0.08,,,1.57,meteohub,2013-04-28 22:29:00,
2013-04-28 18:35:00,52.2,51.6,29.64,NE,45,1.0,2.0,98,0.08,,,1.59,meteohub,2013-04-28 22:35:00,
2013-04-28 18:41:00,52.2,51.6,29.64,NE,45,0.0,2.0,98,0.08,,,1.59,meteohub,2013-04-28 22:41:00,
2013-04-28 18:47:00,52.3,51.8,29.64,NE,45,0.0,2.0,98,0.08,,,1.61,meteohub,2013-04-28 22:47:00,
2013-04-28 18:52:00,52.3,51.8,29.64,SE,135,1.0,1.0,98,0.07,,,1.61,meteohub,2013-04-28 22:52:00,
2013-04-28 18:58:00,52.2,51.6,29.63,SE,135,0.0,1.0,98,0.07,,,1.61,meteohub,2013-04-28 22:58:00,
2013-04-28 19:05:00,52.2,51.6,29.63,NE,45,0.0,1.0,98,0.07,,,1.61,meteohub,2013-04-28 23:05:00,
2013-04-28 19:11:00,52.2,51.6,29.63,NE,45,0.0,1.0,98,0.05,,,1.61,meteohub,2013-04-28 23:11:00,
2013-04-28 19:29:00,51.6,51.3,29.62,NE,45,0.0,0.0,99,0.02,,,1.61,meteohub,2013-04-28 23:29:00,
2013-04-28 19:35:00,51.4,51.1,29.62,NE,45,0.0,0.0,99,0.01,,,1.61,meteohub,2013-04-28 23:35:00,
2013-04-28 19:41:00,51.3,50.9,29.62,NE,45,0.0,0.0,99,0.00,,,1.61,meteohub,2013-04-28 23:41:00,
2013-04-28 19:47:00,51.3,50.9,29.62,NE,45,0.0,0.0,99,0.01,,,1.62,meteohub,2013-04-28 23:47:00,
2013-04-28 19:52:00,51.3,50.9,29.62,NE,45,0.0,0.0,99,0.01,,,1.62,meteohub,2013-04-28 23:52:00,
2013-04-28 20:13:00,50.7,50.4,29.61,NW,315,2.0,-999.0,99,0.01,,,1.62,meteohub,2013-04-29 00:13:00,
2013-04-28 20:20:00,50.5,50.2,29.61,SE,135,2.0,2.0,99,0.02,,,1.62,meteohub,2013-04-29 00:20:00,
2013-04-28 20:26:00,50.4,50.0,29.60,SE,135,0.0,2.0,99,0.04,,,1.64,meteohub,2013-04-29 00:26:00,
2013-04-28 20:32:00,50.4,50.0,29.60,East,90,1.0,2.0,99,0.04,,,1.64,meteohub,2013-04-29 00:32:00,
2013-04-28 20:37:00,50.2,49.8,29.60,NE,45,2.0,5.0,99,0.04,,,1.64,meteohub,2013-04-29 00:37:00,
2013-04-28 20:43:00,49.8,49.5,29.58,NE,45,4.0,5.0,99,0.04,,,1.65,meteohub,2013-04-29 00:43:00,
2013-04-28 20:49:00,49.6,49.5,29.59,NE,45,4.0,5.0,99,0.04,,,1.65,meteohub,2013-04-29 00:49:00,
2013-04-28 20:55:00,49.6,49.5,29.58,North,0,2.0,4.0,99,0.02,,,1.65,meteohub,2013-04-29 00:55:00,
2013-04-28 21:02:00,49.6,49.5,29.59,NE,45,2.0,4.0,99,0.02,,,1.65,meteohub,2013-04-29 01:02:00,
2013-04-28 21:08:00,49.6,49.5,29.59,NE,45,2.0,4.0,99,0.02,,,1.65,meteohub,2013-04-29 01:08:00,
2013-04-28 21:14:00,49.6,49.5,29.59,NW,315,0.0,3.0,99,0.02,,,1.65,meteohub,2013-04-29 01:14:00,
2013-04-28 21:20:00,49.5,49.3,29.60,NE,45,3.0,3.0,99,0.01,,,1.65,meteohub,2013-04-29 01:20:00,
2013-04-28 21:27:00,49.5,49.3,29.60,NE,45,2.0,4.0,99,0.01,,,1.65,meteohub,2013-04-29 01:27:00,
2013-04-28 21:32:00,49.5,49.3,29.59,East,90,3.0,4.0,99,0.02,,,1.67,meteohub,2013-04-29 01:32:00,
2013-04-28 21:37:00,49.5,49.3,29.60,East,90,2.0,4.0,99,0.02,,,1.67,meteohub,2013-04-29 01:37:00,
2013-04-28 21:43:00,49.8,49.5,29.60,North,0,2.0,4.0,99,0.01,,,1.67,meteohub,2013-04-29 01:43:00,
2013-04-28 21:50:00,50.0,49.6,29.60,North,0,5.0,5.0,99,0.01,,,1.67,meteohub,2013-04-29 01:50:00,
2013-04-28 21:56:00,51.1,50.7,29.60,NW,315,6.0,10.0,99,0.01,,,1.67,meteohub,2013-04-29 01:56:00,
2013-04-28 22:02:00,50.5,50.2,29.60,NE,45,3.0,10.0,99,0.01,,,1.67,meteohub,2013-04-29 02:02:00,
2013-04-28 22:07:00,50.2,49.8,29.59,NE,45,2.0,10.0,99,0.01,,,1.67,meteohub,2013-04-29 02:07:00,
2013-04-28 22:13:00,50.0,49.6,29.60,NE,45,4.0,6.0,99,0.01,,,1.67,meteohub,2013-04-29 02:13:00,
2013-04-28 22:20:00,50.0,49.6,29.60,NE,45,3.0,4.0,99,0.02,,,1.68,meteohub,2013-04-29 02:20:00,
2013-04-28 22:26:00,49.8,49.5,29.59,NE,45,2.0,5.0,99,0.02,,,1.68,meteohub,2013-04-29 02:26:00,
2013-04-28 22:32:00,49.6,49.5,29.60,North,0,1.0,5.0,99,0.02,,,1.69,meteohub,2013-04-29 02:32:00,
2013-04-28 22:38:00,49.5,49.3,29.59,NE,45,2.0,5.0,99,0.02,,,1.69,meteohub,2013-04-29 02:38:00,
2013-04-28 22:44:00,49.5,49.3,29.59,NE,45,2.0,4.0,99,0.02,,,1.69,meteohub,2013-04-29 02:44:00,
2013-04-28 22:50:00,49.5,49.3,29.60,SE,135,0.0,3.0,99,0.02,,,1.69,meteohub,2013-04-29 02:50:00,
2013-04-28 22:57:00,49.3,49.1,29.60,North,0,2.0,3.0,99,0.04,,,1.70,meteohub,2013-04-29 02:57:00,
2013-04-28 23:02:00,49.3,49.1,29.60,SE,135,2.0,3.0,99,0.04,,,1.70,meteohub,2013-04-29 03:02:00,
2013-04-28 23:08:00,49.3,49.1,29.60,NE,45,2.0,2.0,99,0.04,,,1.70,meteohub,2013-04-29 03:08:00,
2013-04-28 23:14:00,49.3,49.1,29.60,SE,135,2.0,2.0,99,0.02,,,1.70,meteohub,2013-04-29 03:14:00,
2013-04-28 23:19:00,49.5,49.3,29.60,NE,45,2.0,2.0,99,0.02,,,1.70,meteohub,2013-04-29 03:19:00,
2013-04-28 23:25:00,49.5,49.3,29.59,SW,225,1.0,2.0,99,0.01,,,1.70,meteohub,2013-04-29 03:25:00,
2013-04-28 23:31:00,49.6,49.5,29.61,NE,45,0.0,3.0,99,0.01,,,1.70,meteohub,2013-04-29 03:31:00,
2013-04-28 23:37:00,49.6,49.5,29.60,NE,45,2.0,3.0,99,0.01,,,1.70,meteohub,2013-04-29 03:37:00,
2013-04-28 23:44:00,49.6,49.5,29.60,NE,45,0.0,3.0,99,0.01,,,1.70,meteohub,2013-04-29 03:44:00,
2013-04-28 23:50:00,49.6,49.5,29.60,NW,315,0.0,2.0,99,0.01,,,1.70,meteohub,2013-04-29 03:50:00,
2013-04-28 23:56:00,49.5,49.3,29.60,South,180,2.0,2.0,99,0.01,,,1.71,meteohub,2013-04-29 03:56:00,